Time;durP1;ratioP1;P1;durP2;ratioP2;P2;SDS_P1;SDS_P2;PMS_P1;PMS_P2;Temp;Humidity;BMP_temperature;BMP_pressure;BME280_temperature;BME280_humidity;BME280_pressure;Samples;Min_cycle;Max_cycle;Signal;HPM_P1;HPM_P2
2020/12/03 00:00:50;;;;;;;23.13;19.83;;;2.80;84.70;;;;;;5024343;28;20220;-85
2020/12/03 00:03:41;;;;;;;24.57;18.23;;;2.80;85.00;;;;;;5013788;28;20194;-86
2020/12/03 00:06:12;;;;;;;24.27;18.13;;;2.70;85.60;;;;;;5023215;28;20530;-86
2020/12/03 00:08:40;;;;;;;21.60;16.80;;;2.80;85.70;;;;;;5024188;28;20173;-86
2020/12/03 00:11:06;;;;;;;20.93;17.07;;;2.90;85.00;;;;;;5017189;28;20183;-86
2020/12/03 00:13:34;;;;;;;24.47;18.87;;;3.00;84.40;;;;;;5004832;28;20174;-86
2020/12/03 00:16:02;;;;;;;20.93;18.10;;;2.80;84.80;;;;;;5004067;28;20202;-86
2020/12/03 00:18:32;;;;;;;23.00;19.33;;;2.70;85.20;;;;;;5003765;28;20212;-85
2020/12/03 00:20:59;;;;;;;24.47;20.17;;;2.60;85.80;;;;;;5004569;28;20209;-86
2020/12/03 00:23:24;;;;;;;25.17;20.47;;;2.40;86.50;;;;;;4987348;28;20182;-86
2020/12/03 00:25:52;;;;;;;26.57;20.13;;;2.20;87.40;;;;;;5004186;28;20601;-86
2020/12/03 00:28:18;;;;;;;24.10;18.90;;;2.10;88.10;;;;;;5013264;28;20189;-86
2020/12/03 00:30:45;;;;;;;27.87;19.63;;;2.10;88.20;;;;;;5005348;28;20663;-86
2020/12/03 00:33:17;;;;;;;23.73;18.37;;;2.10;88.70;;;;;;5004092;28;20205;-86
2020/12/03 00:35:47;;;;;;;22.83;17.53;;;2.20;88.20;;;;;;5004065;28;20210;-86
2020/12/03 00:38:15;;;;;;;26.20;19.60;;;2.30;86.80;;;;;;4986492;28;20693;-86
2020/12/03 00:40:41;;;;;;;22.83;17.70;;;2.40;87.10;;;;;;5002628;28;20198;-87
2020/12/03 00:43:07;;;;;;;25.17;17.47;;;2.30;86.50;;;;;;5003060;28;20221;-86
2020/12/03 00:45:32;;;;;;;23.30;18.50;;;2.40;85.40;;;;;;5018541;28;20244;-86
2020/12/03 00:47:58;;;;;;;22.47;16.67;;;2.30;86.00;;;;;;5022890;28;20705;-86
2020/12/03 00:50:24;;;;;;;22.80;16.43;;;2.30;86.10;;;;;;5024024;28;20626;-86
2020/12/03 00:52:50;;;;;;;23.20;17.03;;;2.20;86.70;;;;;;5023647;28;20641;-87
2020/12/03 00:55:16;;;;;;;20.50;16.53;;;2.30;86.50;;;;;;5023462;28;20201;-86
2020/12/03 00:57:42;;;;;;;18.90;15.97;;;2.30;86.70;;;;;;5023391;28;20182;-86
2020/12/03 01:00:10;;;;;;;22.33;15.93;;;2.30;86.20;;;;;;5021257;28;20242;-86
2020/12/03 01:02:36;;;;;;;21.27;15.77;;;2.20;87.60;;;;;;5003523;28;20183;-87
2020/12/03 01:05:04;;;;;;;19.57;15.17;;;2.10;88.20;;;;;;5001852;28;20205;-86
2020/12/03 01:07:30;;;;;;;23.87;16.97;;;2.20;88.20;;;;;;5003870;28;20174;-87
2020/12/03 01:09:56;;;;;;;21.67;15.93;;;2.00;89.10;;;;;;5002299;28;20252;-86
2020/12/03 01:12:21;;;;;;;21.23;16.30;;;2.00;89.60;;;;;;5003291;28;20194;-85
2020/12/03 01:14:47;;;;;;;21.30;16.73;;;2.10;89.40;;;;;;5001848;28;20578;-86
2020/12/03 01:17:15;;;;;;;15.10;13.03;;;2.00;90.10;;;;;;5008938;28;20186;-86
2020/12/03 01:19:41;;;;;;;17.47;13.77;;;2.00;89.20;;;;;;5022944;28;20201;-86
2020/12/03 01:22:07;;;;;;;16.47;12.93;;;2.00;89.30;;;;;;5022249;28;20272;-86
2020/12/03 01:24:34;;;;;;;15.13;11.93;;;1.90;89.90;;;;;;5021688;28;20197;-86
2020/12/03 01:27:00;;;;;;;14.10;10.33;;;1.90;89.70;;;;;;5021675;28;20185;-87
2020/12/03 01:29:26;;;;;;;14.30;11.13;;;1.90;89.50;;;;;;5021466;28;20209;-87
2020/12/03 01:31:53;;;;;;;12.90;10.63;;;1.90;89.90;;;;;;5022539;28;20194;-86
2020/12/03 01:34:19;;;;;;;13.73;11.27;;;1.90;89.90;;;;;;5022773;28;20202;-86
2020/12/03 01:36:51;;;;;;;14.53;11.27;;;1.90;90.30;;;;;;5022422;28;20178;-86
2020/12/03 01:39:18;;;;;;;15.30;11.60;;;1.80;91.30;;;;;;5021928;28;20170;-85
2020/12/03 01:41:44;;;;;;;13.93;11.13;;;1.80;91.20;;;;;;5022963;28;20209;-86
2020/12/03 01:44:09;;;;;;;15.37;11.70;;;1.80;91.20;;;;;;5022496;28;20188;-86
2020/12/03 01:46:37;;;;;;;13.47;11.73;;;2.00;90.00;;;;;;5021593;28;20240;-85
2020/12/03 01:49:18;;;;;;;16.20;12.20;;;1.90;91.30;;;;;;5021909;28;20336;-86
2020/12/03 01:51:53;;;;;;;13.57;11.60;;;2.00;89.70;;;;;;5021594;28;20178;-86
2020/12/03 01:54:20;;;;;;;16.70;12.00;;;2.00;90.10;;;;;;5022646;28;20208;-86
2020/12/03 01:56:57;;;;;;;15.23;11.67;;;1.90;91.00;;;;;;5022411;28;20185;-87
2020/12/03 01:59:27;;;;;;;13.83;11.13;;;1.90;90.90;;;;;;5022749;28;20185;-86
2020/12/03 02:01:54;;;;;;;12.63;10.93;;;2.00;90.90;;;;;;5015226;28;20209;-86
2020/12/03 02:04:20;;;;;;;14.10;10.67;;;2.00;90.20;;;;;;5004565;28;20207;-86
2020/12/03 02:06:48;;;;;;;13.47;11.73;;;2.00;90.90;;;;;;5007282;28;20730;-86
2020/12/03 02:09:15;;;;;;;13.20;10.50;;;2.10;90.40;;;;;;5006375;28;20186;-86
2020/12/03 02:11:41;;;;;;;17.07;11.57;;;2.20;90.20;;;;;;5005017;28;20189;-86
2020/12/03 02:14:09;;;;;;;12.30;10.60;;;2.20;89.30;;;;;;4988952;28;20226;-86
2020/12/03 02:16:37;;;;;;;15.07;11.20;;;2.20;89.20;;;;;;5006455;28;20190;-86
2020/12/03 02:19:24;;;;;;;15.70;12.00;;;2.20;88.90;;;;;;5006429;28;20245;-87
2020/12/03 02:22:04;;;;;;;13.00;11.20;;;2.10;90.20;;;;;;5007847;28;20213;-86
2020/12/03 02:24:34;;;;;;;15.13;11.87;;;1.90;90.60;;;;;;5005548;28;20616;-86
2020/12/03 02:27:00;;;;;;;13.77;11.03;;;2.00;91.00;;;;;;5006195;28;20169;-86
2020/12/03 02:29:27;;;;;;;14.77;11.17;;;2.00;90.40;;;;;;5013415;28;20250;-85
2020/12/03 02:31:53;;;;;;;14.60;10.87;;;2.10;90.30;;;;;;5026505;28;20181;-86
2020/12/03 02:34:19;;;;;;;15.47;11.97;;;2.20;90.00;;;;;;5027309;28;20261;-86
2020/12/03 02:36:51;;;;;;;15.53;12.03;;;2.20;89.70;;;;;;5009854;28;20196;-86
2020/12/03 02:39:16;;;;;;;15.03;11.23;;;2.10;89.80;;;;;;5015102;28;20369;-87
2020/12/03 02:41:42;;;;;;;14.53;11.87;;;2.10;89.60;;;;;;5007098;28;20275;-86
2020/12/03 02:44:08;;;;;;;13.20;11.77;;;2.00;90.30;;;;;;5004789;28;20181;-86
2020/12/03 02:46:33;;;;;;;15.23;12.43;;;2.00;89.80;;;;;;5001275;28;20178;-87
2020/12/03 02:48:59;;;;;;;15.97;12.37;;;1.90;90.40;;;;;;4999950;28;20186;-87
2020/12/03 02:51:25;;;;;;;13.27;11.43;;;1.90;90.90;;;;;;5001946;28;20190;-86
2020/12/03 02:53:51;;;;;;;15.43;12.17;;;2.10;89.80;;;;;;5018442;28;20185;-85
2020/12/03 02:56:16;;;;;;;13.67;11.90;;;2.10;89.30;;;;;;5021066;28;20753;-85
2020/12/03 02:58:42;;;;;;;15.20;12.30;;;2.20;88.80;;;;;;5021036;28;20188;-85
2020/12/03 03:01:08;;;;;;;14.97;12.03;;;2.10;89.20;;;;;;5020550;28;20217;-86
2020/12/03 03:03:33;;;;;;;17.27;13.77;;;2.10;89.20;;;;;;5017759;28;20189;-87
2020/12/03 03:05:59;;;;;;;13.23;11.83;;;2.00;90.00;;;;;;5017087;28;20703;-86
2020/12/03 03:08:25;;;;;;;13.60;11.47;;;2.00;90.10;;;;;;5018059;28;20758;-87
2020/12/03 03:10:51;;;;;;;18.03;14.83;;;2.10;89.60;;;;;;5018777;28;20890;-87
2020/12/03 03:13:17;;;;;;;14.70;12.60;;;2.20;88.80;;;;;;5018143;28;20185;-86
2020/12/03 03:15:43;;;;;;;16.23;12.93;;;2.30;88.60;;;;;;5018613;28;20250;-86
2020/12/03 03:18:09;;;;;;;12.77;11.10;;;2.30;88.70;;;;;;5018394;28;20185;-86
2020/12/03 03:20:35;;;;;;;17.20;13.80;;;2.40;88.30;;;;;;5010451;28;20212;-87
2020/12/03 03:23:01;;;;;;;15.97;13.47;;;2.20;88.50;;;;;;4998773;28;20265;-87
2020/12/03 03:25:26;;;;;;;18.23;14.00;;;2.10;89.00;;;;;;4997042;28;20205;-86
2020/12/03 03:27:52;;;;;;;15.67;13.87;;;2.00;89.70;;;;;;4996987;28;20185;-86
2020/12/03 03:30:19;;;;;;;16.73;13.33;;;2.00;90.60;;;;;;5009638;28;20736;-86
2020/12/03 03:32:44;;;;;;;16.37;14.57;;;2.00;90.90;;;;;;5018080;28;20185;-86
2020/12/03 03:35:10;;;;;;;17.90;14.93;;;1.90;91.00;;;;;;5003413;28;20214;-86
2020/12/03 03:37:35;;;;;;;21.83;16.67;;;1.90;91.30;;;;;;4997820;28;20187;-86
2020/12/03 03:40:04;;;;;;;20.57;16.80;;;1.90;91.20;;;;;;4996719;28;20245;-86
2020/12/03 03:42:30;;;;;;;21.00;15.83;;;1.80;91.40;;;;;;4998353;28;20194;-85
2020/12/03 03:44:56;;;;;;;19.60;15.97;;;1.70;92.00;;;;;;4997775;28;20194;-86
2020/12/03 03:47:22;;;;;;;19.70;15.23;;;1.70;92.60;;;;;;4998519;28;20186;-86
2020/12/03 03:49:48;;;;;;;18.53;14.60;;;1.90;91.80;;;;;;4998136;28;20182;-86
2020/12/03 03:52:14;;;;;;;19.93;15.97;;;2.00;90.90;;;;;;4996740;28;20194;-86
2020/12/03 03:54:40;;;;;;;21.90;16.70;;;2.20;90.10;;;;;;4998532;28;20198;-86
2020/12/03 03:57:05;;;;;;;19.97;15.63;;;2.20;88.70;;;;;;4998003;28;20187;-86
2020/12/03 03:59:31;;;;;;;23.83;16.77;;;2.40;88.00;;;;;;4997434;28;20193;-88
2020/12/03 04:01:57;;;;;;;18.33;15.60;;;2.20;88.30;;;;;;4997999;28;20233;-86
2020/12/03 04:04:23;;;;;;;21.60;18.47;;;2.10;89.60;;;;;;4997825;28;20703;-86
2020/12/03 04:06:48;;;;;;;24.57;18.50;;;2.10;89.60;;;;;;4996358;28;20193;-86
2020/12/03 04:09:14;;;;;;;20.53;17.40;;;1.90;91.00;;;;;;4997906;28;20272;-85
2020/12/03 04:11:42;;;;;;;22.73;17.60;;;1.90;91.20;;;;;;5011758;28;20202;-86
2020/12/03 04:14:08;;;;;;;22.33;17.30;;;1.90;91.10;;;;;;5016075;28;20220;-86
2020/12/03 04:16:33;;;;;;;24.23;18.20;;;2.00;90.20;;;;;;5009723;28;20186;-85
2020/12/03 04:18:59;;;;;;;23.73;17.50;;;2.00;90.00;;;;;;5001322;28;20202;-85
2020/12/03 04:21:25;;;;;;;23.93;18.17;;;2.00;91.20;;;;;;4999813;28;20210;-86
2020/12/03 04:23:50;;;;;;;23.43;17.43;;;2.00;90.40;;;;;;4999898;28;20190;-86
2020/12/03 04:26:16;;;;;;;23.23;17.30;;;2.00;89.70;;;;;;5001140;28;20205;-86
2020/12/03 04:28:42;;;;;;;21.70;16.80;;;2.10;89.80;;;;;;5001447;28;20178;-87
2020/12/03 04:31:09;;;;;;;22.80;16.63;;;2.10;89.80;;;;;;5019698;28;20182;-86
2020/12/03 04:33:35;;;;;;;21.90;17.00;;;2.00;90.40;;;;;;5000883;28;20178;-86
2020/12/03 04:36:01;;;;;;;22.23;16.93;;;2.10;90.10;;;;;;5001035;28;20210;-86
2020/12/03 04:38:27;;;;;;;23.20;17.33;;;2.10;90.00;;;;;;5000655;28;20186;-86
2020/12/03 04:40:53;;;;;;;22.97;17.20;;;2.00;90.20;;;;;;5000971;28;20217;-85
2020/12/03 04:43:31;;;;;;;24.50;17.77;;;2.00;89.60;;;;;;5000357;28;20187;-86
2020/12/03 04:46:21;;;;;;;21.57;17.67;;;2.10;89.10;;;;;;4999180;28;20200;-87
2020/12/03 04:49:07;;;;;;;24.27;17.70;;;2.20;88.70;;;;;;4998493;28;20177;-87
2020/12/03 04:51:49;;;;;;;23.57;18.27;;;2.20;89.10;;;;;;4998057;28;20205;-86
2020/12/03 04:54:37;;;;;;;27.83;18.87;;;2.00;90.00;;;;;;5000678;28;20185;-86
2020/12/03 04:57:31;;;;;;;28.20;18.87;;;2.00;90.20;;;;;;5000234;28;20254;-86
2020/12/03 05:00:12;;;;;;;25.63;19.00;;;1.90;90.90;;;;;;5018922;28;20188;-86
2020/12/03 05:03:03;;;;;;;22.87;18.97;;;1.80;91.30;;;;;;5019375;28;20261;-86
2020/12/03 05:05:56;;;;;;;24.90;18.97;;;1.80;91.40;;;;;;5034145;28;20204;-86
2020/12/03 05:08:37;;;;;;;28.00;19.93;;;1.80;91.60;;;;;;5019158;28;20210;-87
2020/12/03 05:11:12;;;;;;;28.17;18.67;;;1.90;91.50;;;;;;5018048;28;20177;-86
2020/12/03 05:13:47;;;;;;;24.93;18.37;;;1.90;91.20;;;;;;4999245;28;20166;-86
2020/12/03 05:16:17;;;;;;;26.20;19.20;;;1.90;91.50;;;;;;5006920;28;20303;-88
2020/12/03 05:18:56;;;;;;;27.50;19.97;;;1.90;91.20;;;;;;5020887;28;20173;-88
2020/12/03 05:21:28;;;;;;;28.57;20.03;;;1.90;91.70;;;;;;5020627;28;20240;-88
2020/12/03 05:23:54;;;;;;;25.43;19.77;;;1.80;92.00;;;;;;5021957;28;20186;-87
2020/12/03 05:26:25;;;;;;;24.13;19.53;;;1.80;91.90;;;;;;5036239;28;20234;-88
2020/12/03 05:28:58;;;;;;;28.13;19.30;;;1.70;92.50;;;;;;5021204;28;20216;-88
2020/12/03 05:31:37;;;;;;;31.17;21.83;;;1.70;93.00;;;;;;5010883;28;20178;-87
2020/12/03 05:34:21;;;;;;;29.37;21.73;;;1.70;93.60;;;;;;5021471;28;20181;-87
2020/12/03 05:36:57;;;;;;;28.70;21.20;;;1.70;93.60;;;;;;5021279;28;20178;-88
2020/12/03 05:39:35;;;;;;;27.87;20.30;;;1.80;94.30;;;;;;5021653;28;20173;-87
2020/12/03 05:42:04;;;;;;;29.50;21.50;;;1.90;92.90;;;;;;5008579;28;20217;-87
2020/12/03 05:44:49;;;;;;;29.63;21.93;;;1.90;92.50;;;;;;5021143;28;20288;-87
2020/12/03 05:47:23;;;;;;;25.83;19.97;;;2.00;92.60;;;;;;5021588;28;20177;-87
2020/12/03 05:49:52;;;;;;;21.53;17.93;;;2.10;92.30;;;;;;5020467;28;20661;-87
2020/12/03 05:52:24;;;;;;;29.33;21.53;;;2.20;91.80;;;;;;5019837;28;20185;-87
2020/12/03 05:55:30;;;;;;;27.63;21.60;;;2.10;91.80;;;;;;5001714;28;20206;-85
2020/12/03 05:58:17;;;;;;;29.03;21.30;;;1.90;93.30;;;;;;4994333;28;20197;-88
2020/12/03 06:00:43;;;;;;;29.27;23.40;;;1.80;93.80;;;;;;5000442;28;20194;-87
2020/12/03 06:03:35;;;;;;;30.07;22.53;;;1.70;94.60;;;;;;5014565;28;20189;-87
2020/12/03 06:06:23;;;;;;;28.33;21.43;;;1.60;95.20;;;;;;5021371;28;20233;-86
2020/12/03 06:09:01;;;;;;;28.13;21.53;;;1.80;93.90;;;;;;5013880;28;20193;-86
2020/12/03 06:11:55;;;;;;;30.07;22.57;;;1.80;93.90;;;;;;5021488;28;20251;-86
2020/12/03 06:14:40;;;;;;;30.40;21.40;;;1.70;95.00;;;;;;5022114;28;20206;-86
2020/12/03 06:17:45;;;;;;;29.37;21.63;;;1.70;95.20;;;;;;5006389;28;20212;-88
2020/12/03 06:20:45;;;;;;;30.70;20.03;;;1.70;95.10;;;;;;5009475;28;20209;-88
2020/12/03 06:23:32;;;;;;;27.13;20.03;;;1.80;94.10;;;;;;5021561;28;20197;-88
2020/12/03 06:26:20;;;;;;;25.67;19.57;;;2.00;93.10;;;;;;5020572;28;20260;-87
2020/12/03 06:29:08;;;;;;;27.57;20.43;;;2.00;93.60;;;;;;5011914;28;20186;-87
2020/12/03 06:31:47;;;;;;;30.90;21.53;;;2.00;93.80;;;;;;4999213;28;20252;-88
2020/12/03 06:34:50;;;;;;;30.60;22.30;;;1.90;93.50;;;;;;5002514;28;20178;-88
2020/12/03 06:37:55;;;;;;;28.00;21.07;;;1.80;93.70;;;;;;5018195;28;20212;-87
2020/12/03 06:40:28;;;;;;;27.53;19.83;;;1.90;93.70;;;;;;5003351;28;20229;-87
2020/12/03 06:43:07;;;;;;;28.00;20.93;;;1.80;94.00;;;;;;5010582;28;20206;-88
2020/12/03 06:46:17;;;;;;;29.73;21.93;;;1.90;93.60;;;;;;5016573;28;20237;-88
2020/12/03 06:49:01;;;;;;;28.53;21.20;;;1.90;93.80;;;;;;4989851;28;20201;-88
2020/12/03 06:51:48;;;;;;;30.40;22.40;;;1.90;93.90;;;;;;5022488;28;20158;-88
2020/12/03 06:54:23;;;;;;;28.53;20.73;;;1.90;93.60;;;;;;5023319;28;20204;-88
2020/12/03 06:57:07;;;;;;;27.60;21.63;;;1.90;93.40;;;;;;5021052;28;20204;-88
2020/12/03 06:59:54;;;;;;;28.00;21.10;;;1.90;93.70;;;;;;5015006;28;20213;-88
2020/12/03 07:02:41;;;;;;;26.43;20.57;;;2.00;93.10;;;;;;5006307;28;20181;-88
2020/12/03 07:05:20;;;;;;;30.33;21.67;;;2.10;92.80;;;;;;5005862;28;20225;-88
2020/12/03 07:07:55;;;;;;;31.23;22.63;;;2.10;92.30;;;;;;5008312;28;20196;-88
2020/12/03 07:10:34;;;;;;;27.60;21.23;;;2.00;93.10;;;;;;5014063;28;20181;-88
2020/12/03 07:13:22;;;;;;;29.67;21.93;;;2.00;93.30;;;;;;5013978;28;20182;-88
2020/12/03 07:16:09;;;;;;;33.23;23.83;;;1.90;93.70;;;;;;4999675;28;20205;-88
2020/12/03 07:19:13;;;;;;;30.60;22.83;;;2.00;93.70;;;;;;4999611;28;20193;-88
2020/12/03 07:22:08;;;;;;;31.43;21.90;;;2.00;94.00;;;;;;4979438;28;20282;-89
2020/12/03 07:24:36;;;;;;;29.67;22.83;;;2.10;93.30;;;;;;4999086;28;20210;-88
2020/12/03 07:27:41;;;;;;;28.87;23.37;;;2.00;92.90;;;;;;5001587;28;20181;-88
2020/12/03 07:30:12;;;;;;;32.37;23.43;;;2.00;93.60;;;;;;5012052;28;20181;-89
2020/12/03 07:32:56;;;;;;;31.53;23.73;;;1.90;93.90;;;;;;5020680;28;20268;-87
2020/12/03 07:35:47;;;;;;;29.77;21.63;;;1.80;94.40;;;;;;5015830;28;20216;-87
2020/12/03 07:38:39;;;;;;;32.07;24.13;;;1.90;94.90;;;;;;5025937;28;20173;-87
2020/12/03 07:41:06;;;;;;;29.60;21.93;;;1.90;94.30;;;;;;5023910;28;20213;-88
2020/12/03 07:43:38;;;;;;;30.27;22.47;;;1.90;95.20;;;;;;5013921;28;20190;-89
2020/12/03 07:46:26;;;;;;;31.60;22.30;;;1.90;95.60;;;;;;5014023;28;20193;-89
2020/12/03 07:48:52;;;;;;;32.17;22.53;;;1.90;95.00;;;;;;5015912;28;20256;-87
2020/12/03 07:51:19;;;;;;;27.93;20.83;;;1.90;95.20;;;;;;5002636;28;20186;-88
2020/12/03 07:53:46;;;;;;;29.27;21.43;;;2.00;95.00;;;;;;5004367;28;20205;-88
2020/12/03 07:56:26;;;;;;;29.53;22.50;;;2.00;93.50;;;;;;5009160;28;20205;-88
2020/12/03 07:58:54;;;;;;;29.50;21.67;;;2.00;94.60;;;;;;5011481;28;20192;-87
2020/12/03 08:01:29;;;;;;;29.97;23.03;;;2.00;95.00;;;;;;5019887;28;20205;-88
2020/12/03 08:04:07;;;;;;;29.10;21.73;;;2.10;93.60;;;;;;5019607;28;20264;-87
2020/12/03 08:06:38;;;;;;;31.97;21.67;;;2.00;93.60;;;;;;5013935;28;20200;-88
2020/12/03 08:09:03;;;;;;;28.13;21.30;;;2.00;94.20;;;;;;5015086;28;20181;-88
2020/12/03 08:11:37;;;;;;;29.87;22.20;;;2.00;93.90;;;;;;5019481;28;20722;-88
2020/12/03 08:14:04;;;;;;;29.10;21.00;;;2.00;93.60;;;;;;5017114;28;20200;-87
2020/12/03 08:16:32;;;;;;;29.37;21.20;;;2.00;93.70;;;;;;5010172;28;20580;-87
2020/12/03 08:19:15;;;;;;;29.13;21.73;;;2.00;93.90;;;;;;5013186;28;20193;-88
2020/12/03 08:21:42;;;;;;;30.13;21.00;;;2.00;93.70;;;;;;5011593;28;20202;-90
2020/12/03 08:24:23;;;;;;;28.83;20.73;;;2.00;94.20;;;;;;5014368;28;20175;-89
2020/12/03 08:26:54;;;;;;;28.63;20.57;;;2.00;93.70;;;;;;5011305;28;20182;-90
2020/12/03 08:29:39;;;;;;;28.27;20.60;;;2.10;93.00;;;;;;5012764;28;20175;-89
2020/12/03 08:32:05;;;;;;;29.57;19.07;;;2.10;92.20;;;;;;5007125;28;20189;-90
2020/12/03 08:34:38;;;;;;;28.53;19.70;;;2.20;92.00;;;;;;5010746;28;20288;-89
2020/12/03 08:37:08;;;;;;;24.57;18.30;;;2.20;91.90;;;;;;5008624;28;20263;-90
2020/12/03 08:39:35;;;;;;;27.80;19.93;;;2.30;91.00;;;;;;5011734;28;20657;-90
2020/12/03 08:42:01;;;;;;;30.17;19.57;;;2.30;91.30;;;;;;5009956;28;20281;-89
2020/12/03 08:44:28;;;;;;;25.47;20.17;;;2.30;90.60;;;;;;4992825;28;20225;-89
2020/12/03 08:46:58;;;;;;;27.07;19.27;;;2.30;91.20;;;;;;5013020;28;20259;-89
2020/12/03 08:49:24;;;;;;;24.23;18.27;;;2.30;90.50;;;;;;5012925;28;20261;-89
2020/12/03 08:51:51;;;;;;;25.33;18.37;;;2.40;89.20;;;;;;5010004;28;20197;-89
2020/12/03 08:54:25;;;;;;;23.37;17.80;;;2.40;88.80;;;;;;5017898;28;20194;-90
2020/12/03 08:56:57;;;;;;;24.40;19.43;;;2.40;88.80;;;;;;5014123;28;20192;-88
2020/12/03 08:59:44;;;;;;;24.80;17.83;;;2.40;89.30;;;;;;5017271;28;20245;-90
2020/12/03 09:02:11;;;;;;;23.43;17.93;;;2.40;89.60;;;;;;5008173;28;20225;-88
2020/12/03 09:04:49;;;;;;;23.90;18.53;;;2.30;88.20;;;;;;5011758;28;20209;-90
2020/12/03 09:07:18;;;;;;;21.10;16.53;;;2.40;88.00;;;;;;5008930;28;20174;-88
2020/12/03 09:09:47;;;;;;;26.17;18.20;;;2.40;88.20;;;;;;5014219;28;20822;-89
2020/12/03 09:12:19;;;;;;;21.97;17.17;;;2.50;88.30;;;;;;5012765;28;20178;-88
2020/12/03 09:14:48;;;;;;;23.77;17.07;;;2.50;87.10;;;;;;5007408;28;20217;-90
2020/12/03 09:17:18;;;;;;;20.27;15.47;;;2.60;86.30;;;;;;5012809;28;20193;-89
2020/12/03 09:19:44;;;;;;;20.20;15.53;;;2.70;86.40;;;;;;4998740;28;20193;-88
2020/12/03 09:22:12;;;;;;;23.93;16.10;;;2.70;86.00;;;;;;5005372;28;20194;-88
2020/12/03 09:24:39;;;;;;;21.83;16.20;;;2.80;85.50;;;;;;4998208;28;20210;-89
2020/12/03 09:27:08;;;;;;;22.33;17.13;;;2.70;86.00;;;;;;5007678;28;20232;-89
2020/12/03 09:29:34;;;;;;;25.27;18.07;;;2.70;86.20;;;;;;5011294;28;20198;-88
2020/12/03 09:32:06;;;;;;;20.43;16.13;;;2.60;86.20;;;;;;5008044;28;20645;-88
2020/12/03 09:34:37;;;;;;;21.03;16.40;;;2.70;85.30;;;;;;5007086;28;20274;-88
2020/12/03 09:37:04;;;;;;;22.27;17.10;;;2.70;85.30;;;;;;5006159;28;20716;-89
2020/12/03 09:39:31;;;;;;;24.23;17.77;;;2.70;85.40;;;;;;5013734;28;20214;-90
2020/12/03 09:42:00;;;;;;;21.20;16.80;;;2.70;84.70;;;;;;5018949;28;20627;-89
2020/12/03 09:44:26;;;;;;;20.30;15.77;;;2.80;84.90;;;;;;5011132;28;20208;-89
2020/12/03 09:46:56;;;;;;;20.93;15.70;;;2.90;84.70;;;;;;5004706;28;20178;-90
2020/12/03 09:49:22;;;;;;;22.03;15.30;;;2.90;83.80;;;;;;5019963;28;20193;-90
2020/12/03 09:51:48;;;;;;;20.10;14.93;;;3.00;84.50;;;;;;5011004;28;20189;-91
2020/12/03 09:54:14;;;;;;;28.80;16.50;;;3.00;84.00;;;;;;5008898;28;20661;-90
2020/12/03 09:56:41;;;;;;;22.63;15.63;;;3.00;84.50;;;;;;5016778;28;20261;-89
2020/12/03 09:59:07;;;;;;;23.83;15.47;;;2.90;85.30;;;;;;5008362;28;20280;-90
2020/12/03 10:02:07;;;;;;;18.93;15.20;;;3.10;83.40;;;;;;5014062;28;20213;-89
2020/12/03 10:04:58;;;;;;;21.07;14.93;;;3.20;83.30;;;;;;5009901;28;20209;-89
2020/12/03 10:07:39;;;;;;;19.93;14.97;;;3.10;82.60;;;;;;5010075;28;20192;-89
2020/12/03 10:10:38;;;;;;;18.93;14.30;;;3.00;84.80;;;;;;5008167;28;20178;-89
2020/12/03 10:13:07;;;;;;;18.90;14.63;;;3.00;83.30;;;;;;5010434;28;20182;-89
2020/12/03 10:15:45;;;;;;;19.50;15.50;;;3.00;83.10;;;;;;5011645;28;20202;-89
2020/12/03 10:18:33;;;;;;;20.77;14.50;;;3.00;84.10;;;;;;5010227;28;20221;-90
2020/12/03 10:20:59;;;;;;;17.67;13.93;;;3.10;84.40;;;;;;5008852;28;20240;-90
2020/12/03 10:23:25;;;;;;;20.60;15.03;;;3.10;83.50;;;;;;5006753;28;20191;-88
2020/12/03 10:26:06;;;;;;;19.30;15.23;;;3.20;83.40;;;;;;5007266;28;20214;-91
2020/12/03 10:28:44;;;;;;;17.67;13.87;;;3.30;83.40;;;;;;5014100;28;20216;-89
2020/12/03 10:31:11;;;;;;;19.10;14.70;;;3.20;83.00;;;;;;5009866;28;20245;-90
2020/12/03 10:33:37;;;;;;;18.27;14.30;;;3.20;82.90;;;;;;5014187;28;20194;-90
2020/12/03 10:36:26;;;;;;;18.27;13.13;;;3.20;81.70;;;;;;5019356;28;20213;-91
2020/12/03 10:38:56;;;;;;;18.30;13.50;;;3.20;82.60;;;;;;5038329;28;20315;-91
2020/12/03 10:41:28;;;;;;;16.97;13.57;;;3.40;82.60;;;;;;5010342;28;20241;-90
2020/12/03 10:43:57;;;;;;;19.00;14.60;;;3.50;81.40;;;;;;5007727;28;20202;-90
2020/12/03 10:46:25;;;;;;;15.03;12.60;;;3.60;81.70;;;;;;5007471;28;20202;-91
2020/12/03 10:48:57;;;;;;;19.33;14.03;;;3.70;80.10;;;;;;5011700;28;20201;-91
2020/12/03 10:51:23;;;;;;;14.00;11.83;;;3.60;80.50;;;;;;5016922;28;20219;-90
2020/12/03 10:53:50;;;;;;;19.50;13.23;;;3.60;79.70;;;;;;5021668;28;20197;-91
2020/12/03 10:56:23;;;;;;;17.60;14.00;;;3.60;79.40;;;;;;5015501;28;20214;-91
2020/12/03 10:59:21;;;;;;;17.93;12.97;;;3.50;80.30;;;;;;5020151;28;20196;-91
2020/12/03 11:01:54;;;;;;;14.27;11.47;;;3.70;79.20;;;;;;5031506;28;20237;-91
2020/12/03 11:04:21;;;;;;;11.90;9.80;;;3.70;78.90;;;;;;5014399;28;20277;-90
2020/12/03 11:06:47;;;;;;;13.73;9.60;;;3.80;77.80;;;;;;5010797;28;20261;-90
2020/12/03 11:09:21;;;;;;;13.53;10.77;;;4.00;77.20;;;;;;5012080;28;20237;-90
2020/12/03 11:11:48;;;;;;;15.03;10.40;;;3.90;77.50;;;;;;4994938;28;20280;-90
2020/12/03 11:14:16;;;;;;;12.63;8.40;;;3.90;77.50;;;;;;5009843;28;20182;-91
2020/12/03 11:17:27;;;;;;;9.83;8.83;;;3.90;76.50;;;;;;5012355;28;20211;-91
2020/12/03 11:19:57;;;;;;;11.30;9.40;;;3.90;76.50;;;;;;5004632;28;20230;-93
2020/12/03 11:22:38;;;;;;;12.10;8.60;;;4.00;77.10;;;;;;5011910;28;20192;-92
2020/12/03 11:25:06;;;;;;;14.27;9.27;;;4.00;77.70;;;;;;5018597;28;20205;-93
2020/12/03 11:27:35;;;;;;;13.83;9.40;;;4.00;78.00;;;;;;5017939;28;20185;-94
2020/12/03 11:30:14;;;;;;;9.77;8.13;;;4.10;76.90;;;;;;5016260;28;20261;-93
2020/12/03 11:32:48;;;;;;;11.90;7.87;;;4.00;76.00;;;;;;5014210;28;20185;-93
2020/12/03 11:35:21;;;;;;;8.33;6.87;;;4.00;75.80;;;;;;5017377;28;20278;-94
2020/12/03 11:37:51;;;;;;;8.10;6.97;;;4.00;74.90;;;;;;5017842;28;20177;-92
2020/12/03 11:40:22;;;;;;;9.57;7.00;;;4.10;75.00;;;;;;5016396;28;20233;-93
2020/12/03 11:42:57;;;;;;;8.30;6.30;;;4.20;74.40;;;;;;5018720;28;20201;-93
2020/12/03 11:45:46;;;;;;;6.53;5.67;;;4.30;73.10;;;;;;5015281;28;20239;-91
2020/12/03 11:50:40;;;;;;;5.90;5.03;;;4.20;73.20;;;;;;5018714;28;20185;-90
2020/12/03 11:53:06;;;;;;;6.50;5.60;;;4.20;73.70;;;;;;5011748;28;20263;-90
2020/12/03 11:55:39;;;;;;;7.43;6.73;;;4.20;72.80;;;;;;5008446;28;20210;-90
2020/12/03 11:58:08;;;;;;;6.70;5.87;;;4.40;73.10;;;;;;5017295;28;20208;-92
2020/12/03 12:00:35;;;;;;;7.23;6.20;;;4.40;72.90;;;;;;5014517;28;20213;-92
2020/12/03 12:03:03;;;;;;;7.30;6.30;;;4.30;72.60;;;;;;5013178;28;20209;-92
2020/12/03 12:11:00;;;;;;;16.47;6.67;;;4.40;73.30;;;;;;5016334;28;20181;-89
2020/12/03 12:13:26;;;;;;;10.60;6.97;;;4.40;73.70;;;;;;5018614;28;20241;-90
2020/12/03 12:15:52;;;;;;;8.50;6.50;;;4.40;73.40;;;;;;5016568;28;20213;-90
2020/12/03 12:18:18;;;;;;;8.57;7.00;;;4.50;73.60;;;;;;5010439;28;20193;-93
2020/12/03 12:20:44;;;;;;;7.37;6.50;;;4.40;73.80;;;;;;4997572;28;20202;-91
2020/12/03 12:23:10;;;;;;;8.77;6.73;;;4.60;72.70;;;;;;5015879;28;20722;-90
2020/12/03 12:25:36;;;;;;;8.83;6.97;;;4.50;72.40;;;;;;5010866;28;20248;-91
2020/12/03 12:28:02;;;;;;;9.63;8.00;;;4.50;73.80;;;;;;5009542;28;20381;-90
2020/12/03 12:30:29;;;;;;;7.60;6.80;;;4.60;73.90;;;;;;5010655;28;20218;-91
2020/12/03 12:32:55;;;;;;;7.97;6.47;;;4.70;73.90;;;;;;5012015;28;20190;-91
2020/12/03 12:35:20;;;;;;;8.93;7.23;;;4.70;72.00;;;;;;5011488;28;20225;-92
2020/12/03 12:37:46;;;;;;;7.17;6.47;;;4.70;72.70;;;;;;5013826;28;20186;-92
2020/12/03 12:40:12;;;;;;;10.23;8.80;;;4.80;72.90;;;;;;4997111;28;20190;-92
2020/12/03 12:42:38;;;;;;;9.83;8.53;;;5.10;71.90;;;;;;5013033;28;20290;-92
2020/12/03 12:45:04;;;;;;;8.97;8.07;;;5.50;69.00;;;;;;4985105;28;20237;-90
2020/12/03 12:47:30;;;;;;;7.67;6.87;;;5.70;69.00;;;;;;4986497;28;20626;-91
2020/12/03 12:49:56;;;;;;;7.57;6.73;;;5.80;68.20;;;;;;5002141;28;20568;-90
2020/12/03 12:52:21;;;;;;;7.37;6.60;;;5.40;69.60;;;;;;5004946;28;20190;-90
2020/12/03 12:54:47;;;;;;;7.17;5.97;;;5.40;69.70;;;;;;5018072;28;20256;-91
2020/12/03 12:57:13;;;;;;;6.83;6.10;;;5.30;70.40;;;;;;5022377;28;20213;-90
2020/12/03 12:59:39;;;;;;;7.37;6.20;;;5.10;70.60;;;;;;5017240;28;20189;-89
2020/12/03 13:02:05;;;;;;;6.43;5.80;;;5.10;71.20;;;;;;5016889;28;20227;-90
2020/12/03 13:04:31;;;;;;;7.00;5.83;;;5.20;71.70;;;;;;5022762;28;20308;-89
2020/12/03 13:06:57;;;;;;;7.50;6.50;;;5.10;72.10;;;;;;5020548;28;20192;-91
2020/12/03 13:09:25;;;;;;;8.43;5.50;;;5.20;71.80;;;;;;5023930;28;20178;-89
2020/12/03 13:11:51;;;;;;;6.23;5.63;;;5.40;69.50;;;;;;5006494;28;20843;-90
2020/12/03 13:14:17;;;;;;;7.33;6.20;;;5.40;70.70;;;;;;5024451;28;20186;-89